Time;durP1;ratioP1;P1;durP2;ratioP2;P2;SDS_P1;SDS_P2;PMS_P1;PMS_P2;Temp;Humidity;BMP_temperature;BMP_pressure;BME280_temperature;BME280_humidity;BME280_pressure;Samples;Min_cycle;Max_cycle;Signal;HPM_P1;HPM_P2
2021/07/17 00:00:53;;;;;;;;;15.00;12.50;;;;;-143.39;100.00;63593.47;4848558;29;45359;-83
2021/07/17 00:03:18;;;;;;;;;21.50;16.00;;;;;-143.39;100.00;63593.47;4865187;29;45271;-83
2021/07/17 00:05:45;;;;;;;;;13.25;13.00;;;;;-143.39;100.00;63593.47;4865527;29;45415;-83
2021/07/17 00:08:11;;;;;;;;;17.00;14.50;;;;;-143.39;100.00;63593.47;4861219;29;45701;-83
2021/07/17 00:10:46;;;;;;;;;15.50;13.25;;;;;-143.39;100.00;63593.47;4868306;29;45321;-82
2021/07/17 00:13:11;;;;;;;;;13.75;13.00;;;;;-143.39;100.00;63593.47;4850662;29;45403;-83
2021/07/17 00:15:37;;;;;;;;;15.00;12.00;;;;;-143.39;100.00;63593.47;4865187;29;45640;-83
2021/07/17 00:18:05;;;;;;;;;14.50;14.00;;;;;-143.39;100.00;63593.47;4860919;29;45345;-83
2021/07/17 00:20:31;;;;;;;;;16.00;12.25;;;;;-143.39;100.00;63593.47;4865294;29;45379;-83
2021/07/17 00:22:59;;;;;;;;;16.75;15.25;;;;;-143.39;100.00;63593.47;4847963;29;45468;-83
2021/07/17 00:25:25;;;;;;;;;15.75;15.00;;;;;-143.39;100.00;63593.47;4848272;29;47301;-83
2021/07/17 00:27:51;;;;;;;;;18.00;12.75;;;;;-143.39;100.00;63593.47;4861499;29;45501;-83
2021/07/17 00:30:17;;;;;;;;;13.50;11.75;;;;;-143.39;100.00;63593.47;4858620;29;45359;-83
2021/07/17 00:32:46;;;;;;;;;21.75;14.50;;;;;-143.39;100.00;63593.47;4868467;29;45180;-83
2021/07/17 00:35:12;;;;;;;;;16.75;13.25;;;;;-143.39;100.00;63593.47;4868254;29;45446;-83
2021/07/17 00:37:37;;;;;;;;;20.00;14.75;;;;;-143.39;100.00;63593.47;4863346;29;45392;-83
2021/07/17 00:40:05;;;;;;;;;17.25;13.75;;;;;-143.39;100.00;63593.47;4867659;29;45808;-83
2021/07/17 00:42:31;;;;;;;;;19.25;13.75;;;;;-143.39;100.00;63593.47;4867905;29;45241;-83
2021/07/17 00:44:57;;;;;;;;;19.75;15.75;;;;;-143.39;100.00;63593.47;4853392;29;45555;-83
2021/07/17 00:47:23;;;;;;;;;15.25;13.75;;;;;-143.39;100.00;63593.47;4849153;29;45807;-82
2021/07/17 00:49:48;;;;;;;;;15.50;14.25;;;;;-143.39;100.00;63593.47;4851271;29;45310;-82
2021/07/17 00:52:14;;;;;;;;;15.50;12.75;;;;;-143.39;100.00;63593.47;4869198;29;45414;-82
2021/07/17 00:54:41;;;;;;;;;21.00;14.75;;;;;-143.39;100.00;63593.47;4869999;29;45333;-82
2021/07/17 00:57:09;;;;;;;;;13.75;13.75;;;;;-143.39;100.00;63593.47;4867051;29;45647;-82
2021/07/17 00:59:36;;;;;;;;;18.50;16.75;;;;;-143.39;100.00;63593.47;4850987;29;45264;-82
2021/07/17 01:02:04;;;;;;;;;23.50;16.50;;;;;-143.39;100.00;63593.47;4867468;29;45248;-82
2021/07/17 01:04:30;;;;;;;;;20.75;16.50;;;;;-143.39;100.00;63593.47;4867621;29;45588;-82
2021/07/17 01:06:59;;;;;;;;;27.75;17.75;;;;;-143.39;100.00;63593.47;4840071;29;46241;-82
2021/07/17 01:09:28;;;;;;;;;18.00;15.50;;;;;-143.39;100.00;63593.47;4867696;29;45268;-82
2021/07/17 01:11:56;;;;;;;;;25.25;18.50;;;;;-143.39;100.00;63593.47;4867470;29;45307;-82
2021/07/17 01:14:22;;;;;;;;;20.25;17.00;;;;;-143.39;100.00;63593.47;4867420;29;46498;-82
2021/07/17 01:16:47;;;;;;;;;24.00;16.00;;;;;-143.39;100.00;63593.47;4848230;29;46072;-82
2021/07/17 01:19:13;;;;;;;;;21.50;16.75;;;;;-143.39;100.00;63593.47;4868867;29;45391;-82
2021/07/17 01:21:39;;;;;;;;;19.50;17.00;;;;;-143.39;100.00;63593.47;4867639;29;45235;-82
2021/07/17 01:24:05;;;;;;;;;18.25;15.25;;;;;-143.39;100.00;63593.47;4867495;29;45435;-83
2021/07/17 01:26:30;;;;;;;;;19.75;15.75;;;;;-143.39;100.00;63593.47;4867500;29;45632;-82
2021/07/17 01:28:56;;;;;;;;;20.00;16.25;;;;;-143.39;100.00;63593.47;4862529;29;45685;-82
2021/07/17 01:31:29;;;;;;;;;20.25;14.25;;;;;-143.39;100.00;63593.47;4855628;29;45449;-82
2021/07/17 01:33:54;;;;;;;;;18.25;15.25;;;;;-143.39;100.00;63593.47;4849951;29;47222;-82
2021/07/17 01:36:20;;;;;;;;;19.00;17.50;;;;;-143.39;100.00;63593.47;4859727;29;45721;-82
2021/07/17 01:38:45;;;;;;;;;19.75;15.75;;;;;-143.39;100.00;63593.47;4862796;29;45398;-81
2021/07/17 01:41:14;;;;;;;;;18.00;13.00;;;;;-143.39;100.00;63593.47;4864954;29;45400;-81
2021/07/17 01:43:39;;;;;;;;;18.50;16.00;;;;;-143.39;100.00;63593.47;4851826;29;48207;-82
2021/07/17 01:46:08;;;;;;;;;20.25;15.50;;;;;-143.39;100.00;63593.47;4850292;29;45505;-82
2021/07/17 01:48:33;;;;;;;;;21.25;18.50;;;;;-143.39;100.00;63593.47;4864739;29;45467;-82
2021/07/17 01:50:59;;;;;;;;;14.00;11.75;;;;;-143.39;100.00;63593.47;4849393;29;45447;-82
2021/07/17 01:53:24;;;;;;;;;19.50;16.75;;;;;-143.39;100.00;63593.47;4872303;29;46208;-82
2021/07/17 01:55:50;;;;;;;;;20.50;16.50;;;;;-143.39;100.00;63593.47;4881059;29;45417;-82
2021/07/17 01:58:16;;;;;;;;;20.00;14.75;;;;;-143.39;100.00;63593.47;4861512;29;45500;-82
2021/07/17 02:00:41;;;;;;;;;16.75;14.25;;;;;-143.39;100.00;63593.47;4866953;29;45175;-82
2021/07/17 02:03:07;;;;;;;;;17.00;14.50;;;;;-143.39;100.00;63593.47;4869061;29;46950;-82
2021/07/17 02:05:33;;;;;;;;;17.00;14.75;;;;;-143.39;100.00;63593.47;4868866;29;45671;-82
2021/07/17 02:07:59;;;;;;;;;20.50;14.50;;;;;-143.39;100.00;63593.47;4846649;29;45256;-82
2021/07/17 02:10:30;;;;;;;;;17.50;16.75;;;;;-143.39;100.00;63593.47;4877902;29;45419;-82
2021/07/17 02:13:06;;;;;;;;;21.75;18.00;;;;;-143.39;100.00;63593.47;4877428;29;45384;-82
2021/07/17 02:15:35;;;;;;;;;21.25;18.25;;;;;-143.39;100.00;63593.47;4866308;29;45329;-82
2021/07/17 02:18:01;;;;;;;;;19.75;16.75;;;;;-143.39;100.00;63593.47;4848490;29;45536;-82
2021/07/17 02:20:27;;;;;;;;;21.75;17.25;;;;;-143.39;100.00;63593.47;4849732;29;45492;-82
2021/07/17 02:22:53;;;;;;;;;21.25;19.00;;;;;-143.39;100.00;63593.47;4867487;29;45489;-81
2021/07/17 02:25:19;;;;;;;;;20.25;14.75;;;;;-143.39;100.00;63593.47;4870119;29;45421;-82
2021/07/17 02:27:44;;;;;;;;;21.00;16.50;;;;;-143.39;100.00;63593.47;4864322;29;45201;-81
2021/07/17 02:30:10;;;;;;;;;20.50;17.25;;;;;-143.39;100.00;63593.47;4850109;29;45792;-82
2021/07/17 02:32:36;;;;;;;;;19.50;17.25;;;;;-143.39;100.00;63593.47;4865337;29;46373;-82
2021/07/17 02:35:03;;;;;;;;;22.75;17.25;;;;;-143.39;100.00;63593.47;4865879;29;45309;-82
2021/07/17 02:37:29;;;;;;;;;20.25;16.75;;;;;-143.39;100.00;63593.47;4846302;29;45624;-82
2021/07/17 02:39:54;;;;;;;;;19.50;18.00;;;;;-143.39;100.00;63593.47;4865813;29;45431;-82
2021/07/17 02:42:19;;;;;;;;;22.75;15.50;;;;;-143.39;100.00;63593.47;4849565;29;46383;-82
2021/07/17 02:44:46;;;;;;;;;18.25;16.50;;;;;-143.39;100.00;63593.47;4849594;29;45230;-82
2021/07/17 02:47:12;;;;;;;;;19.00;14.25;;;;;-143.39;100.00;63593.47;4865098;29;45432;-82
2021/07/17 02:49:37;;;;;;;;;23.50;18.50;;;;;-143.39;100.00;63593.47;4866828;29;45746;-82
2021/07/17 02:52:06;;;;;;;;;25.75;20.25;;;;;-143.39;100.00;63593.47;4866201;29;45418;-82
2021/07/17 02:54:31;;;;;;;;;22.75;17.50;;;;;-143.39;100.00;63593.47;4865853;29;45497;-82
2021/07/17 02:56:57;;;;;;;;;22.75;16.75;;;;;-143.39;100.00;63593.47;4864092;29;46105;-82
2021/07/17 02:59:22;;;;;;;;;23.50;18.25;;;;;-143.39;100.00;63593.47;4865586;29;45208;-82
2021/07/17 03:01:48;;;;;;;;;20.75;16.00;;;;;-143.39;100.00;63593.47;4865749;29;45395;-82
2021/07/17 03:04:13;;;;;;;;;21.50;17.25;;;;;-143.39;100.00;63593.47;4866052;29;45250;-82
2021/07/17 03:06:39;;;;;;;;;21.25;16.25;;;;;-143.39;100.00;63593.47;4864918;29;45231;-82
2021/07/17 03:09:06;;;;;;;;;23.25;15.75;;;;;-143.39;100.00;63593.47;4869502;29;45424;-82
2021/07/17 03:11:35;;;;;;;;;22.50;17.00;;;;;-143.39;100.00;63593.47;4869057;29;46081;-82
2021/07/17 03:14:02;;;;;;;;;21.00;17.00;;;;;-143.39;100.00;63593.47;4865405;29;45573;-82
2021/07/17 03:16:30;;;;;;;;;20.50;17.50;;;;;-143.39;100.00;63593.47;4847194;29;45247;-82
2021/07/17 03:18:55;;;;;;;;;20.75;17.75;;;;;-143.39;100.00;63593.47;4862769;29;45711;-82
2021/07/17 03:21:21;;;;;;;;;22.25;17.25;;;;;-143.39;100.00;63593.47;4848589;29;47032;-82
2021/07/17 03:23:47;;;;;;;;;22.25;18.25;;;;;-143.39;100.00;63593.47;4865956;29;45412;-82
2021/07/17 03:26:15;;;;;;;;;19.50;18.00;;;;;-143.39;100.00;63593.47;4864704;29;45365;-82
2021/07/17 03:28:41;;;;;;;;;19.25;18.50;;;;;-143.39;100.00;63593.47;4864792;29;45398;-82
2021/07/17 03:31:07;;;;;;;;;22.50;18.25;;;;;-143.39;100.00;63593.47;4865499;29;45571;-82
2021/07/17 03:33:33;;;;;;;;;21.50;19.00;;;;;-143.39;100.00;63593.47;4851228;29;45514;-82
2021/07/17 03:35:58;;;;;;;;;22.50;18.25;;;;;-143.39;100.00;63593.47;4849183;29;45274;-82
2021/07/17 03:38:25;;;;;;;;;23.25;18.25;;;;;-143.39;100.00;63593.47;4861614;29;45339;-82
2021/07/17 03:40:53;;;;;;;;;22.50;20.00;;;;;-143.39;100.00;63593.47;4864649;29;45390;-81
2021/07/17 03:43:18;;;;;;;;;20.00;17.75;;;;;-143.39;100.00;63593.47;4848905;29;45419;-82
2021/07/17 03:45:44;;;;;;;;;22.75;17.50;;;;;-143.39;100.00;63593.47;4865571;29;45475;-82
2021/07/17 03:48:09;;;;;;;;;18.50;16.25;;;;;-143.39;100.00;63593.47;4862699;29;45534;-83
2021/07/17 03:50:35;;;;;;;;;21.75;20.25;;;;;-143.39;100.00;63593.47;4865511;29;46330;-82
2021/07/17 03:53:01;;;;;;;;;17.25;16.75;;;;;-143.39;100.00;63593.47;4850407;29;45277;-82
2021/07/17 03:55:27;;;;;;;;;21.75;16.25;;;;;-143.39;100.00;63593.47;4851746;29;45363;-82
2021/07/17 03:57:52;;;;;;;;;17.00;15.75;;;;;-143.39;100.00;63593.47;4847477;29;45338;-82
2021/07/17 04:00:18;;;;;;;;;22.50;18.25;;;;;-143.39;100.00;63593.47;4864301;29;46065;-82
2021/07/17 04:02:44;;;;;;;;;22.75;18.50;;;;;-143.39;100.00;63593.47;4864877;29;45227;-82
2021/07/17 04:05:12;;;;;;;;;21.75;18.75;;;;;-143.39;100.00;63593.47;4858176;29;45333;-82
2021/07/17 04:07:38;;;;;;;;;17.25;15.75;;;;;-143.39;100.00;63593.47;4846963;29;45610;-82
2021/07/17 04:10:05;;;;;;;;;20.50;16.50;;;;;-143.39;100.00;63593.47;4848549;29;46382;-82
2021/07/17 04:12:31;;;;;;;;;20.25;18.50;;;;;-143.39;100.00;63593.47;4848405;29;45241;-82
2021/07/17 04:14:56;;;;;;;;;24.50;21.00;;;;;-143.39;100.00;63593.47;4869154;29;45501;-82
2021/07/17 04:17:25;;;;;;;;;21.75;18.00;;;;;-143.39;100.00;63593.47;4850368;29;45860;-82
2021/07/17 04:19:50;;;;;;;;;19.75;18.00;;;;;-143.39;100.00;63593.47;4852523;29;45701;-82
2021/07/17 04:22:16;;;;;;;;;23.50;18.50;;;;;-143.39;100.00;63593.47;4868412;29;45404;-82
2021/07/17 04:24:41;;;;;;;;;29.50;17.75;;;;;-143.39;100.00;63593.47;4868658;29;45433;-82
2021/07/17 04:27:07;;;;;;;;;20.25;17.25;;;;;-143.39;100.00;63593.47;4850017;29;45828;-82
2021/07/17 04:29:33;;;;;;;;;20.25;17.50;;;;;-143.39;100.00;63593.47;4868252;29;46467;-82
2021/07/17 04:31:58;;;;;;;;;19.00;17.25;;;;;-143.39;100.00;63593.47;4868197;29;45447;-82
2021/07/17 04:34:24;;;;;;;;;19.00;15.75;;;;;-143.39;100.00;63593.47;4866448;29;45508;-82
2021/07/17 04:36:50;;;;;;;;;18.50;18.00;;;;;-143.39;100.00;63593.47;4848020;29;45529;-82
2021/07/17 04:39:16;;;;;;;;;22.25;16.75;;;;;-143.39;100.00;63593.47;4868288;29;45377;-82
2021/07/17 04:41:41;;;;;;;;;23.50;17.50;;;;;-143.39;100.00;63593.47;4870166;29;45482;-82
2021/07/17 04:44:07;;;;;;;;;21.75;18.75;;;;;-143.39;100.00;63593.47;4868653;29;45628;-82
2021/07/17 04:46:32;;;;;;;;;24.25;17.50;;;;;-143.39;100.00;63593.47;4849692;29;45466;-82
2021/07/17 04:48:57;;;;;;;;;24.00;19.25;;;;;-143.39;100.00;63593.47;4868331;29;45292;-82
2021/07/17 04:51:23;;;;;;;;;19.25;15.75;;;;;-143.39;100.00;63593.47;4868228;29;45269;-82
2021/07/17 04:53:48;;;;;;;;;22.50;18.25;;;;;-143.39;100.00;63593.47;4867411;29;46757;-82
2021/07/17 04:56:14;;;;;;;;;23.50;17.50;;;;;-143.39;100.00;63593.47;4863966;29;46372;-82
2021/07/17 04:58:39;;;;;;;;;23.75;18.50;;;;;-143.39;100.00;63593.47;4866915;29;46385;-82
2021/07/17 05:01:05;;;;;;;;;22.00;18.75;;;;;-143.39;100.00;63593.47;4869880;29;45422;-83
2021/07/17 05:03:30;;;;;;;;;24.50;18.00;;;;;-143.39;100.00;63593.47;4869873;29;45392;-82
2021/07/17 05:05:56;;;;;;;;;27.25;20.00;;;;;-143.39;100.00;63593.47;4850150;29;45498;-82
2021/07/17 05:08:21;;;;;;;;;22.75;18.50;;;;;-143.39;100.00;63593.47;4867158;29;46365;-82
2021/07/17 05:10:48;;;;;;;;;25.00;18.00;;;;;-143.39;100.00;63593.47;4851039;29;45469;-83
2021/07/17 05:13:18;;;;;;;;;17.50;15.00;;;;;-143.39;100.00;63593.47;4867875;29;45485;-82
2021/07/17 05:15:47;;;;;;;;;22.75;18.50;;;;;-143.39;100.00;63593.47;4863553;29;45542;-82
2021/07/17 05:18:12;;;;;;;;;23.25;20.50;;;;;-143.39;100.00;63593.47;4867103;29;45494;-82
2021/07/17 05:20:43;;;;;;;;;26.75;20.75;;;;;-143.39;100.00;63593.47;4869895;29;45438;-82
2021/07/17 05:23:10;;;;;;;;;22.75;18.75;;;;;-143.39;100.00;63593.47;4871065;29;45383;-83
2021/07/17 05:25:37;;;;;;;;;22.25;19.75;;;;;-143.39;100.00;63593.47;4866494;29;46301;-82
2021/07/17 05:28:03;;;;;;;;;29.75;22.25;;;;;-143.39;100.00;63593.47;4849904;29;46564;-82
2021/07/17 05:30:29;;;;;;;;;30.75;25.25;;;;;-143.39;100.00;63593.47;4867199;29;45244;-82
2021/07/17 05:32:55;;;;;;;;;29.25;20.00;;;;;-143.39;100.00;63593.47;4866843;29;45226;-82
2021/07/17 05:35:21;;;;;;;;;21.75;18.00;;;;;-143.39;100.00;63593.47;4851291;29;45518;-82
2021/07/17 05:37:46;;;;;;;;;22.00;20.75;;;;;-143.39;100.00;63593.47;4870092;29;45689;-82
2021/07/17 05:40:13;;;;;;;;;22.25;19.50;;;;;-143.39;100.00;63593.47;4849928;29;45507;-82
2021/07/17 05:42:38;;;;;;;;;22.25;21.50;;;;;-143.39;100.00;63593.47;4852279;29;45276;-83
2021/07/17 05:45:05;;;;;;;;;26.00;21.00;;;;;-143.39;100.00;63593.47;4852956;29;46092;-82
2021/07/17 05:47:31;;;;;;;;;22.25;16.50;;;;;-143.39;100.00;63593.47;4873041;29;46190;-82
2021/07/17 05:49:56;;;;;;;;;24.00;20.25;;;;;-143.39;100.00;63593.47;4867518;29;45442;-82
2021/07/17 05:52:22;;;;;;;;;22.75;19.75;;;;;-143.39;100.00;63593.47;4849713;29;45352;-82
2021/07/17 05:54:47;;;;;;;;;23.75;18.50;;;;;-143.39;100.00;63593.47;4862274;29;45335;-82
2021/07/17 05:57:13;;;;;;;;;29.50;22.00;;;;;-143.39;100.00;63593.47;4878166;29;45489;-82
2021/07/17 05:59:40;;;;;;;;;20.75;18.00;;;;;-143.39;100.00;63593.47;4866390;29;45429;-82
2021/07/17 06:02:06;;;;;;;;;25.00;19.50;;;;;-143.39;100.00;63593.47;4849547;29;45332;-82
2021/07/17 06:04:32;;;;;;;;;22.25;18.25;;;;;-143.39;100.00;63593.47;4862502;29;45240;-82
2021/07/17 06:07:00;;;;;;;;;29.50;19.50;;;;;-143.39;100.00;63593.47;4870308;29;46108;-82
2021/07/17 06:09:26;;;;;;;;;21.25;17.50;;;;;-143.39;100.00;63593.47;4879088;29;45315;-82
2021/07/17 06:11:51;;;;;;;;;23.00;19.75;;;;;-143.39;100.00;63593.47;4870251;29;45444;-82
2021/07/17 06:14:17;;;;;;;;;30.25;25.50;;;;;-143.39;100.00;63593.47;4848822;29;45690;-82
2021/07/17 06:16:45;;;;;;;;;23.50;21.00;;;;;-143.39;100.00;63593.47;4874628;29;45730;-82
2021/07/17 06:19:11;;;;;;;;;29.50;24.00;;;;;-143.39;100.00;63593.47;4858289;29;45772;-82
2021/07/17 06:21:37;;;;;;;;;27.75;19.75;;;;;-143.39;100.00;63593.47;4866645;29;45234;-82
2021/07/17 06:24:03;;;;;;;;;21.50;17.50;;;;;-143.39;100.00;63593.47;4866486;29;45670;-82
2021/07/17 06:26:31;;;;;;;;;22.50;18.25;;;;;-143.39;100.00;63593.47;4872983;29;46045;-83
2021/07/17 06:28:57;;;;;;;;;27.50;20.50;;;;;-143.39;100.00;63593.47;4866902;29;45585;-82
2021/07/17 06:31:23;;;;;;;;;25.00;21.00;;;;;-143.39;100.00;63593.47;4879070;29;45482;-82
2021/07/17 06:33:48;;;;;;;;;19.50;17.25;;;;;-143.39;100.00;63593.47;4869406;29;45488;-83
2021/07/17 06:36:20;;;;;;;;;24.00;20.50;;;;;-143.39;100.00;63593.47;4865767;29;45979;-82
2021/07/17 06:38:48;;;;;;;;;19.50;18.00;;;;;-143.39;100.00;63593.47;4868051;29;45600;-82
2021/07/17 06:41:15;;;;;;;;;25.50;17.25;;;;;-143.39;100.00;63593.47;4866523;29;45415;-82
2021/07/17 06:43:41;;;;;;;;;25.50;19.00;;;;;-143.39;100.00;63593.47;4863562;29;45215;-83
2021/07/17 06:46:07;;;;;;;;;23.00;19.75;;;;;-143.39;100.00;63593.47;4872085;29;45379;-82
2021/07/17 06:48:32;;;;;;;;;29.25;21.00;;;;;-143.39;100.00;63593.47;4866378;29;45654;-82
2021/07/17 06:50:58;;;;;;;;;27.00;24.50;;;;;-143.39;100.00;63593.47;4874035;29;45233;-83
2021/07/17 06:53:24;;;;;;;;;21.50;20.00;;;;;-143.39;100.00;63593.47;4875062;29;45737;-83
2021/07/17 06:56:20;;;;;;;;;36.25;24.50;;;;;-143.39;100.00;63593.47;4849934;29;47323;-84
2021/07/17 06:59:26;;;;;;;;;;;;;;;;;;;;;
2021/07/17 07:01:54;;;;;;;;;;;;;;;;;;;;;
2021/07/17 07:04:28;;;;;;;;;26.00;22.00;;;;;-143.39;100.00;63593.47;4862313;29;72725;-83
2021/07/17 07:07:17;;;;;;;;;;;;;;;;;;;;;
2021/07/17 07:10:54;;;;;;;;;26.75;20.75;;;;;-143.39;100.00;63593.47;4876064;29;73410;-83
2021/07/17 07:13:13;;;;;;;;;34.25;30.75;;;;;-143.39;100.00;63593.47;4857250;29;45399;-82
2021/07/17 07:15:39;;;;;;;;;34.50;27.50;;;;;-143.39;100.00;63593.47;4867513;29;45593;-82
2021/07/17 07:18:07;;;;;;;;;32.50;29.50;;;;;-143.39;100.00;63593.47;4867940;29;47181;-82
2021/07/17 07:20:34;;;;;;;;;28.75;22.75;;;;;-143.39;100.00;63593.47;4855754;29;45264;-82
2021/07/17 07:23:02;;;;;;;;;27.25;24.25;;;;;-143.39;100.00;63593.47;4847417;29;45348;-83
2021/07/17 07:25:28;;;;;;;;;25.50;20.00;;;;;-143.39;100.00;63593.47;4864496;29;45355;-82
2021/07/17 07:27:54;;;;;;;;;27.50;22.50;;;;;-143.39;100.00;63593.47;4866259;29;46177;-82
2021/07/17 07:30:20;;;;;;;;;26.75;21.00;;;;;-143.39;100.00;63593.47;4867205;29;45344;-82
2021/07/17 07:32:48;;;;;;;;;23.50;20.50;;;;;-143.39;100.00;63593.47;4861459;29;45301;-82
2021/07/17 07:35:13;;;;;;;;;25.50;20.50;;;;;-143.39;100.00;63593.47;4864533;29;45353;-82
2021/07/17 07:37:43;;;;;;;;;26.50;22.25;;;;;-143.39;100.00;63593.47;4884040;29;46261;-81
2021/07/17 07:40:10;;;;;;;;;26.00;21.50;;;;;-143.39;100.00;63593.47;4850095;29;45631;-81
2021/07/17 07:42:35;;;;;;;;;27.50;20.75;;;;;-143.39;100.00;63593.47;4860317;29;45445;-82
2021/07/17 07:45:01;;;;;;;;;27.75;22.00;;;;;-143.39;100.00;63593.47;4864558;29;45516;-82
2021/07/17 07:47:26;;;;;;;;;22.75;21.75;;;;;-143.39;100.00;63593.47;4847907;29;45913;-82
2021/07/17 07:49:54;;;;;;;;;25.00;19.25;;;;;-143.39;100.00;63593.47;4864946;29;45301;-82
2021/07/17 07:52:20;;;;;;;;;26.75;22.00;;;;;-143.39;100.00;63593.47;4847132;29;45172;-82
2021/07/17 07:54:45;;;;;;;;;24.00;20.00;;;;;-143.39;100.00;63593.47;4861432;29;45459;-82
2021/07/17 07:57:12;;;;;;;;;26.00;22.50;;;;;-143.39;100.00;63593.47;4863427;29;46428;-82
2021/07/17 07:59:37;;;;;;;;;24.75;22.25;;;;;-143.39;100.00;63593.47;4869223;29;45231;-82
2021/07/17 08:02:03;;;;;;;;;28.50;21.75;;;;;-143.39;100.00;63593.47;4876330;29;47239;-82
2021/07/17 08:04:28;;;;;;;;;25.00;23.50;;;;;-143.39;100.00;63593.47;4865422;29;45954;-82
2021/07/17 08:06:54;;;;;;;;;26.75;22.50;;;;;-143.39;100.00;63593.47;4878018;29;46205;-82
2021/07/17 08:09:19;;;;;;;;;28.00;23.00;;;;;-143.39;100.00;63593.47;4878877;29;45436;-83
2021/07/17 08:11:44;;;;;;;;;28.25;21.25;;;;;-143.39;100.00;63593.47;4849099;29;45413;-82
2021/07/17 08:14:10;;;;;;;;;32.25;24.75;;;;;-143.39;100.00;63593.47;4849547;29;45533;-82
2021/07/17 08:16:36;;;;;;;;;26.00;22.75;;;;;-143.39;100.00;63593.47;4866671;29;45253;-82
2021/07/17 08:19:01;;;;;;;;;31.25;22.25;;;;;-143.39;100.00;63593.47;4867380;29;45258;-82
2021/07/17 08:21:26;;;;;;;;;34.75;28.75;;;;;-143.39;100.00;63593.47;4868156;29;45588;-82
2021/07/17 08:23:55;;;;;;;;;27.25;20.75;;;;;-143.39;100.00;63593.47;4861463;29;45635;-82
2021/07/17 08:26:26;;;;;;;;;30.00;24.25;;;;;-143.39;100.00;63593.47;4865348;29;46325;-82
2021/07/17 08:28:51;;;;;;;;;28.50;19.75;;;;;-143.39;100.00;63593.47;4865337;29;45559;-84
2021/07/17 08:31:17;;;;;;;;;23.00;20.25;;;;;-143.39;100.00;63593.47;4864818;29;46030;-84
2021/07/17 10:44:13;;;;;;;;;22.75;19.75;;;;;-143.39;100.00;63593.47;4749546;29;45456;-87
2021/07/17 10:47:18;;;;;;;;;;;;;;;;;;;;;
2021/07/17 10:49:50;;;;;;;;;21.50;18.75;;;;;-143.39;100.00;63593.47;4779672;29;72903;-85
2021/07/17 10:52:35;;;;;;;;;22.00;19.75;;;;;-143.39;100.00;63593.47;4808966;29;45462;-85
2021/07/17 10:55:24;;;;;;;;;23.25;19.50;;;;;-143.39;100.00;63593.47;4831892;29;45467;-86
2021/07/17 10:57:51;;;;;;;;;23.50;17.25;;;;;-143.39;100.00;63593.47;4886304;29;45251;-85
2021/07/17 11:00:41;;;;;;;;;24.00;21.00;;;;;-143.39;100.00;63593.47;4868198;29;45475;-85
2021/07/17 11:03:28;;;;;;;;;24.00;19.25;;;;;-143.39;100.00;63593.47;4874843;29;46245;-86
2021/07/17 11:05:54;;;;;;;;;21.25;20.50;;;;;-143.39;100.00;63593.47;4868132;29;45451;-86
2021/07/17 11:08:30;;;;;;;;;26.50;22.50;;;;;-143.39;100.00;63593.47;4885258;29;45264;-86
2021/07/17 11:10:58;;;;;;;;;21.25;20.50;;;;;-143.39;100.00;63593.47;4868015;29;45289;-85
2021/07/17 11:13:30;;;;;;;;;24.75;21.00;;;;;-143.39;100.00;63593.47;4868099;29;47082;-86
2021/07/17 11:15:55;;;;;;;;;24.00;20.00;;;;;-143.39;100.00;63593.47;4868965;29;45274;-86
2021/07/17 11:18:23;;;;;;;;;24.25;21.25;;;;;-143.39;100.00;63593.47;4887854;29;45285;-86
2021/07/17 11:20:48;;;;;;;;;25.50;21.75;;;;;-143.39;100.00;63593.47;4879980;29;45465;-86
2021/07/17 11:23:17;;;;;;;;;25.00;22.25;;;;;-143.39;100.00;63593.47;4885043;29;45493;-86
2021/07/17 11:26:03;;;;;;;;;23.25;22.25;;;;;-143.39;100.00;63593.47;4883716;29;45450;-86
2021/07/17 11:28:47;;;;;;;;;23.75;18.00;;;;;-143.39;100.00;63593.47;4867847;29;45465;-86
2021/07/17 11:31:27;;;;;;;;;22.00;19.75;;;;;-143.39;100.00;63593.47;4884344;29;45334;-86
2021/07/17 11:34:14;;;;;;;;;23.75;21.25;;;;;-143.39;100.00;63593.47;4884819;29;45439;-86
2021/07/17 11:36:45;;;;;;;;;23.25;21.00;;;;;-143.39;100.00;63593.47;4884515;29;45451;-86
2021/07/17 11:39:14;;;;;;;;;21.50;18.50;;;;;-143.39;100.00;63593.47;4885779;29;45249;-86
2021/07/17 11:41:40;;;;;;;;;24.00;21.50;;;;;-143.39;100.00;63593.47;4888556;29;45330;-86
2021/07/17 11:44:06;;;;;;;;;27.25;21.00;;;;;-143.39;100.00;63593.47;4885119;29;45357;-86
2021/07/17 11:46:33;;;;;;;;;21.25;18.50;;;;;-143.39;100.00;63593.47;4868020;29;45822;-86
2021/07/17 11:49:05;;;;;;;;;27.25;23.00;;;;;-143.39;100.00;63593.47;4884511;29;45424;-86
2021/07/17 11:51:32;;;;;;;;;25.00;20.25;;;;;-143.39;100.00;63593.47;4883536;29;45529;-86
2021/07/17 11:54:00;;;;;;;;;26.50;23.00;;;;;-143.39;100.00;63593.47;4884218;29;45500;-86
2021/07/17 11:56:27;;;;;;;;;22.50;19.25;;;;;-143.39;100.00;63593.47;4884652;29;45145;-86
2021/07/17 11:59:28;;;;;;;;;24.50;19.75;;;;;-143.39;100.00;63593.47;4884800;29;45264;-86
2021/07/17 12:02:03;;;;;;;;;23.75;21.00;;;;;-143.39;100.00;63593.47;4794069;29;45479;-86
2021/07/17 12:04:35;;;;;;;;;22.50;19.25;;;;;-143.39;100.00;63593.47;4874204;29;45217;-86
2021/07/17 12:07:09;;;;;;;;;24.25;22.25;;;;;-143.39;100.00;63593.47;4867707;29;45950;-86
2021/07/17 12:09:45;;;;;;;;;23.75;23.75;;;;;-143.39;100.00;63593.47;4884515;29;45446;-86
2021/07/17 12:12:43;;;;;;;;;22.25;21.00;;;;;-143.39;100.00;63593.47;4884211;29;45367;-87
2021/07/17 12:15:21;;;;;;;;;27.75;23.75;;;;;-143.39;100.00;63593.47;4872148;29;45626;-86
2021/07/17 12:17:47;;;;;;;;;26.00;24.00;;;;;-143.39;100.00;63593.47;4867284;29;45279;-86
2021/07/17 12:20:33;;;;;;;;;29.25;23.25;;;;;-143.39;100.00;63593.47;4866598;29;46524;-85
2021/07/17 12:23:05;;;;;;;;;27.25;23.00;;;;;-143.39;100.00;63593.47;4867159;29;45517;-85
2021/07/17 12:25:41;;;;;;;;;25.00;21.00;;;;;-143.39;100.00;63593.47;4870388;29;48295;-86
2021/07/17 12:28:08;;;;;;;;;25.25;23.25;;;;;-143.39;100.00;63593.47;4885582;29;45232;-87
2021/07/17 12:30:41;;;;;;;;;19.75;17.75;;;;;-143.39;100.00;63593.47;4867097;29;45459;-88
2021/07/17 12:33:36;;;;;;;;;24.25;19.25;;;;;-143.39;100.00;63593.47;4880405;29;45228;-87
2021/07/17 12:36:13;;;;;;;;;25.00;21.25;;;;;-143.39;100.00;63593.47;4883001;29;45950;-87
2021/07/17 12:45:33;;;;;;;;;21.00;19.25;;;;;-143.39;100.00;63593.47;4782167;29;45300;-87
2021/07/17 12:47:59;;;;;;;;;23.50;20.50;;;;;-143.39;100.00;63593.47;4826850;29;45384;-85
2021/07/17 12:50:26;;;;;;;;;24.25;18.25;;;;;-143.39;100.00;63593.47;4863592;29;45334;-86
2021/07/17 12:53:13;;;;;;;;;26.00;21.25;;;;;-143.39;100.00;63593.47;4885742;29;45348;-86
2021/07/17 12:55:45;;;;;;;;;19.25;19.25;;;;;-143.39;100.00;63593.47;4885777;29;45408;-86
2021/07/17 12:58:12;;;;;;;;;24.00;21.25;;;;;-143.39;100.00;63593.47;4865761;29;47319;-86
2021/07/17 13:00:39;;;;;;;;;23.25;22.00;;;;;-143.39;100.00;63593.47;4869594;29;45455;-86
2021/07/17 13:03:07;;;;;;;;;27.50;21.50;;;;;-143.39;100.00;63593.47;4886844;29;45437;-85
2021/07/17 13:05:49;;;;;;;;;25.50;22.25;;;;;-143.39;100.00;63593.47;4886994;29;45383;-85
2021/07/17 13:08:29;;;;;;;;;37.25;24.25;;;;;-143.39;100.00;63593.47;4882635;29;45346;-85
2021/07/17 13:10:56;;;;;;;;;23.75;21.75;;;;;-143.39;100.00;63593.47;4890448;29;45291;-86
2021/07/17 13:13:40;;;;;;;;;22.50;19.25;;;;;-143.39;100.00;63593.47;4888932;29;45239;-86
2021/07/17 13:16:05;;;;;;;;;22.75;21.75;;;;;-143.39;100.00;63593.47;4866862;29;45282;-84
2021/07/17 13:18:32;;;;;;;;;25.75;22.00;;;;;-143.39;100.00;63593.47;4884605;29;45895;-86
2021/07/17 13:21:06;;;;;;;;;22.75;21.75;;;;;-143.39;100.00;63593.47;4869543;29;45192;-86
2021/07/17 13:23:57;;;;;;;;;19.75;18.00;;;;;-143.39;100.00;63593.47;4869909;29;45334;-86